createdAt,value
2023-03-28T00:00:10.478Z,99.99
2023-03-28T00:01:10.430Z,99.99
2023-03-28T00:02:10.452Z,99.99
2023-03-28T00:03:10.446Z,99.99
2023-03-28T00:04:10.498Z,99.99
2023-03-28T00:05:10.372Z,99.99
2023-03-28T00:06:10.437Z,99.99
2023-03-28T00:07:10.359Z,99.99
2023-03-28T00:08:10.373Z,99.99
2023-03-28T00:09:10.343Z,99.99
2023-03-28T00:10:10.333Z,99.99
2023-03-28T00:11:10.324Z,99.99
2023-03-28T00:12:10.334Z,99.99
2023-03-28T00:13:10.272Z,99.99
2023-03-28T00:14:10.285Z,99.99
2023-03-28T00:15:10.265Z,99.99
2023-03-28T00:16:10.307Z,99.99
2023-03-28T00:17:10.248Z,99.99
2023-03-28T00:18:10.215Z,99.92
2023-03-28T00:19:10.224Z,99.92
2023-03-28T00:20:10.191Z,99.51
2023-03-28T00:21:10.172Z,98.88
2023-03-28T00:22:10.184Z,98.14
2023-03-28T00:23:10.142Z,97.72
2023-03-28T00:24:10.149Z,97.52
2023-03-28T00:25:10.142Z,97.52
2023-03-28T00:26:10.127Z,97.20
2023-03-28T00:27:10.118Z,96.78
2023-03-28T00:28:10.168Z,96.37
2023-03-28T00:29:10.107Z,95.95
2023-03-28T00:30:10.089Z,95.84
2023-03-28T00:31:10.078Z,95.74
2023-03-28T00:32:10.050Z,95.84
2023-03-28T00:33:10.051Z,95.74
2023-03-28T00:34:10.051Z,95.53
2023-03-28T00:35:10.049Z,95.43
2023-03-28T00:36:09.986Z,95.43
2023-03-28T00:37:09.977Z,95.32
2023-03-28T00:38:09.965Z,95.21
2023-03-28T00:39:09.972Z,94.80
2023-03-28T00:40:09.998Z,94.80
2023-03-28T00:41:09.935Z,95.01
2023-03-28T00:42:09.928Z,94.80
2023-03-28T00:43:09.904Z,94.70
2023-03-28T00:44:09.890Z,94.38
2023-03-28T00:45:09.903Z,94.49
2023-03-28T00:46:09.917Z,94.27
2023-03-28T00:47:09.909Z,93.96
2023-03-28T00:48:14.178Z,93.76
2023-03-28T00:49:10.866Z,93.76
2023-03-28T00:50:09.818Z,93.86
2023-03-28T00:51:09.831Z,93.96
2023-03-28T00:52:09.833Z,93.86
2023-03-28T00:53:09.812Z,94.07
2023-03-28T00:54:09.800Z,94.17
2023-03-28T00:55:09.756Z,94.38
2023-03-28T00:56:09.758Z,94.49
2023-03-28T00:57:09.805Z,94.59
2023-03-28T00:58:09.746Z,94.59
2023-03-28T00:59:09.714Z,94.80
2023-03-28T01:00:09.708Z,94.90
2023-03-28T01:01:09.719Z,95.01
2023-03-28T01:02:09.776Z,95.21
2023-03-28T01:03:09.698Z,95.32
2023-03-28T01:04:09.648Z,95.43
2023-03-28T01:05:09.667Z,95.53
2023-03-28T01:06:09.633Z,95.64
2023-03-28T01:07:09.632Z,95.74
2023-03-28T01:08:09.647Z,95.84
2023-03-28T01:09:09.578Z,95.84
2023-03-28T01:10:09.582Z,95.95
2023-03-28T01:11:09.564Z,96.05
2023-03-28T01:12:09.562Z,96.05
2023-03-28T01:13:09.537Z,96.26
2023-03-28T01:14:09.531Z,96.26
2023-03-28T01:15:09.509Z,96.37
2023-03-28T01:16:09.605Z,96.47
2023-03-28T01:17:09.472Z,96.47
2023-03-28T01:18:09.522Z,96.47
2023-03-28T01:19:09.453Z,96.58
2023-03-28T01:20:09.441Z,96.68
2023-03-28T01:21:09.434Z,96.68
2023-03-28T01:22:09.453Z,96.68
2023-03-28T01:23:09.423Z,96.68
2023-03-28T01:24:11.458Z,96.47
2023-03-28T01:25:09.407Z,96.33
2023-03-28T01:26:09.360Z,96.11
2023-03-28T01:27:09.362Z,95.90
2023-03-28T01:28:09.350Z,95.70
2023-03-28T01:29:09.333Z,95.59
2023-03-28T01:30:09.358Z,95.59
2023-03-28T01:31:09.320Z,95.59
2023-03-28T01:32:09.301Z,95.59
2023-03-28T01:33:09.317Z,95.59
2023-03-28T01:34:09.274Z,95.38
2023-03-28T01:35:09.271Z,95.28
2023-03-28T01:36:09.241Z,95.07
2023-03-28T01:37:09.293Z,94.55
2023-03-28T01:38:09.221Z,94.23
2023-03-28T01:39:09.199Z,94.02
2023-03-28T01:40:09.179Z,93.77
2023-03-28T01:41:09.189Z,93.67
2023-03-28T01:42:09.180Z,93.57
2023-03-28T01:43:09.177Z,93.46
2023-03-28T01:44:09.156Z,93.46
2023-03-28T01:45:09.113Z,93.46
2023-03-28T01:46:09.134Z,93.40
2023-03-28T01:47:09.096Z,93.35
2023-03-28T01:48:09.117Z,93.25
2023-03-28T01:49:09.077Z,93.15
2023-03-28T01:50:09.085Z,93.04
2023-03-28T01:51:09.055Z,92.83
2023-03-28T01:52:09.049Z,92.94
2023-03-28T01:53:09.039Z,92.94
2023-03-28T01:54:09.008Z,92.94
2023-03-28T01:55:09.000Z,92.63
2023-03-28T01:56:08.997Z,92.52
2023-03-28T01:58:01.192Z,92.31
2023-03-28T01:59:01.151Z,91.89
2023-03-28T02:00:01.205Z,91.69
2023-03-28T02:01:01.160Z,91.47
2023-03-28T02:02:01.124Z,91.47
2023-03-28T02:03:01.185Z,91.58
2023-03-28T02:04:01.119Z,91.58
2023-03-28T02:05:01.117Z,91.69
2023-03-28T02:06:01.388Z,91.47
2023-03-28T02:07:01.073Z,91.58
2023-03-28T02:08:01.067Z,91.37
2023-03-28T02:09:01.052Z,91.37
2023-03-28T02:10:01.010Z,91.37
2023-03-28T02:11:01.021Z,91.06
2023-03-28T02:12:00.985Z,91.27
2023-03-28T02:13:00.985Z,91.16
2023-03-28T02:14:00.993Z,90.95
2023-03-28T02:15:00.977Z,90.43
2023-03-28T02:16:01.147Z,90.53
2023-03-28T02:17:00.947Z,90.53
2023-03-28T02:18:00.994Z,90.53
2023-03-28T02:19:00.904Z,90.64
2023-03-28T02:20:01.012Z,90.95
2023-03-28T02:21:00.888Z,91.06
2023-03-28T02:22:00.898Z,91.27
2023-03-28T02:23:00.882Z,91.37
2023-03-28T02:24:00.865Z,91.47
2023-03-28T02:25:00.840Z,91.79
2023-03-28T02:26:01.054Z,92.00
2023-03-28T02:27:00.846Z,92.10
2023-03-28T02:28:00.807Z,92.10
2023-03-28T02:29:00.807Z,92.10
2023-03-28T02:30:00.795Z,92.10
2023-03-28T02:31:00.828Z,92.21
2023-03-28T02:32:00.892Z,92.35
2023-03-28T02:33:00.809Z,92.46
2023-03-28T02:34:00.742Z,92.56
2023-03-28T02:35:00.746Z,92.66
2023-03-28T02:36:01.030Z,92.88
2023-03-28T02:37:00.714Z,92.98
2023-03-28T02:38:00.721Z,93.08
2023-03-28T02:39:00.699Z,93.19
2023-03-28T02:40:00.691Z,93.29
2023-03-28T02:41:00.666Z,93.19
2023-03-28T02:42:00.660Z,93.29
2023-03-28T02:43:00.675Z,93.29
2023-03-28T02:44:00.656Z,93.19
2023-03-28T02:45:00.606Z,93.29
2023-03-28T02:46:00.843Z,93.19
2023-03-28T02:47:01.438Z,93.08
2023-03-28T02:48:00.657Z,92.88
2023-03-28T02:49:00.550Z,92.88
2023-03-28T02:50:00.557Z,93.08
2023-03-28T02:51:00.541Z,93.23
2023-03-28T02:52:00.553Z,93.44
2023-03-28T02:53:00.546Z,93.65
2023-03-28T02:54:00.517Z,93.76
2023-03-28T02:55:00.465Z,93.86
2023-03-28T02:56:00.666Z,93.96
2023-03-28T02:57:00.508Z,94.17
2023-03-28T02:58:00.481Z,94.38
2023-03-28T02:59:00.485Z,94.59
2023-03-28T03:00:00.422Z,94.80
2023-03-28T03:01:00.416Z,95.11
2023-03-28T03:02:00.445Z,95.11
2023-03-28T03:03:00.461Z,95.21
2023-03-28T03:04:00.405Z,95.32
2023-03-28T03:05:00.339Z,95.32
2023-03-28T03:06:00.540Z,95.43
2023-03-28T03:07:00.343Z,95.53
2023-03-28T03:08:00.307Z,95.64
2023-03-28T03:09:00.320Z,95.64
2023-03-28T03:10:00.303Z,95.53
2023-03-28T03:11:00.339Z,95.53
2023-03-28T03:12:00.287Z,95.43
2023-03-28T03:13:00.274Z,95.43
2023-03-28T03:14:00.290Z,95.43
2023-03-28T03:15:00.237Z,95.32
2023-03-28T03:16:00.445Z,95.43
2023-03-28T03:17:00.197Z,95.53
2023-03-28T03:18:00.247Z,95.43
2023-03-28T03:19:00.207Z,95.21
2023-03-28T03:20:00.171Z,95.11
2023-03-28T03:21:00.198Z,95.01
2023-03-28T03:22:00.154Z,94.90
2023-03-28T03:23:00.138Z,94.70
2023-03-28T03:24:00.178Z,94.44
2023-03-28T03:25:00.149Z,94.13
2023-03-28T03:26:00.240Z,93.92
2023-03-28T03:27:00.121Z,93.61
2023-03-28T03:28:00.180Z,93.40
2023-03-28T03:29:00.039Z,93.29
2023-03-28T03:30:00.049Z,92.98
2023-03-28T03:31:00.093Z,92.77
2023-03-28T03:32:00.048Z,92.56
2023-03-28T03:33:00.038Z,92.35
2023-03-28T03:33:59.984Z,92.14
2023-03-28T03:34:59.981Z,92.04
2023-03-28T03:36:00.249Z,92.04
2023-03-28T03:36:59.958Z,92.14
2023-03-28T03:37:59.939Z,92.14
2023-03-28T03:38:59.925Z,92.25
2023-03-28T03:39:59.903Z,92.04
2023-03-28T03:40:59.921Z,92.04
2023-03-28T03:41:59.894Z,92.04
2023-03-28T03:42:59.862Z,92.14
2023-03-28T03:43:59.854Z,92.35
2023-03-28T03:44:59.865Z,92.35
2023-03-28T03:46:00.005Z,92.35
2023-03-28T03:46:59.836Z,92.35
2023-03-28T03:47:59.891Z,92.35
2023-03-28T03:48:59.828Z,92.46
2023-03-28T03:49:59.825Z,92.56
2023-03-28T03:50:59.778Z,92.56
2023-03-28T03:51:59.775Z,92.56
2023-03-28T03:52:59.767Z,92.66
2023-03-28T03:53:59.742Z,92.66
2023-03-28T03:54:59.732Z,92.66
2023-03-28T03:55:59.859Z,92.77
2023-03-28T03:56:59.771Z,92.88
2023-03-28T03:57:59.680Z,92.88
2023-03-28T03:58:59.676Z,92.77
2023-03-28T03:59:59.703Z,92.77
2023-03-28T04:00:59.669Z,92.88
2023-03-28T04:01:59.692Z,92.98
2023-03-28T04:02:59.669Z,93.08
2023-03-28T04:03:59.681Z,93.29
2023-03-28T04:04:59.579Z,93.29
2023-03-28T04:05:59.700Z,92.98
2023-03-28T04:06:59.600Z,92.77
2023-03-28T04:07:59.576Z,92.56
2023-03-28T04:08:59.541Z,92.46
2023-03-28T04:09:59.520Z,92.31
2023-03-28T04:10:59.548Z,92.35
2023-03-28T04:11:59.490Z,92.46
2023-03-28T04:12:59.498Z,92.66
2023-03-28T04:13:59.528Z,92.77
2023-03-28T04:14:59.525Z,92.66
2023-03-28T04:15:59.782Z,92.77
2023-03-28T04:16:59.428Z,92.77
2023-03-28T04:18:00.328Z,92.77
2023-03-28T04:18:59.422Z,92.77
2023-03-28T04:19:59.409Z,92.88
2023-03-28T04:20:59.395Z,92.88
2023-03-28T04:21:59.379Z,92.77
2023-03-28T04:22:59.354Z,92.66
2023-03-28T04:23:59.346Z,92.46
2023-03-28T04:24:59.376Z,92.35
2023-03-28T04:25:59.556Z,92.35
2023-03-28T04:26:59.360Z,92.35
2023-03-28T04:27:59.325Z,92.46
2023-03-28T04:28:59.306Z,92.46
2023-03-28T04:29:59.276Z,92.46
2023-03-28T04:30:59.384Z,92.56
2023-03-28T04:31:59.249Z,92.56
2023-03-28T04:32:59.273Z,92.46
2023-03-28T04:33:59.286Z,92.46
2023-03-28T04:34:59.264Z,92.46
2023-03-28T04:35:59.400Z,92.35
2023-03-28T04:36:59.162Z,92.25
2023-03-28T04:37:59.167Z,92.35
2023-03-28T04:38:59.163Z,92.35
2023-03-28T04:39:59.116Z,92.35
2023-03-28T04:40:59.175Z,92.50
2023-03-28T04:41:59.136Z,92.56
2023-03-28T04:42:59.103Z,92.60
2023-03-28T04:43:59.092Z,92.71
2023-03-28T04:44:59.082Z,92.82
2023-03-28T04:45:59.312Z,92.92
2023-03-28T04:46:59.098Z,92.92
2023-03-28T04:47:59.058Z,92.71
2023-03-28T04:48:59.065Z,92.46
2023-03-28T04:49:59.015Z,92.35
2023-03-28T04:50:59.010Z,92.25
2023-03-28T04:51:59.036Z,92.14
2023-03-28T04:52:58.996Z,91.94
2023-03-28T04:53:58.968Z,92.04
2023-03-28T04:54:58.991Z,92.14
2023-03-28T04:55:59.089Z,92.04
2023-03-28T04:56:58.994Z,92.04
2023-03-28T04:57:58.946Z,91.83
2023-03-28T04:58:58.924Z,91.79
2023-03-28T04:59:58.915Z,91.79
2023-03-28T05:00:59.240Z,91.89
2023-03-28T05:01:59.086Z,91.89
2023-03-28T05:02:58.936Z,91.89
2023-03-28T05:03:58.839Z,91.79
2023-03-28T05:04:58.858Z,91.69
2023-03-28T05:05:58.814Z,91.58
2023-03-28T05:06:58.824Z,91.47
2023-03-28T05:07:58.840Z,91.47
2023-03-28T05:08:58.788Z,91.58
2023-03-28T05:09:58.737Z,91.79
2023-03-28T05:10:59.002Z,91.79
2023-03-28T05:11:58.705Z,91.89
2023-03-28T05:12:58.731Z,92.00
2023-03-28T05:13:58.741Z,92.10
2023-03-28T05:14:58.675Z,92.21
2023-03-28T05:15:58.700Z,92.41
2023-03-28T05:16:58.674Z,92.10
2023-03-28T05:17:58.717Z,91.89
2023-03-28T05:18:59.108Z,91.69
2023-03-28T05:19:58.674Z,91.58
2023-03-28T05:20:58.808Z,91.79
2023-03-28T05:21:58.627Z,91.69
2023-03-28T05:22:58.633Z,91.79
2023-03-28T05:23:58.594Z,92.00
2023-03-28T05:24:58.552Z,92.00
2023-03-28T05:25:58.556Z,91.89
2023-03-28T05:26:58.568Z,91.79
2023-03-28T05:27:58.510Z,91.79
2023-03-28T05:28:58.534Z,91.79
2023-03-28T05:29:58.508Z,91.79
2023-03-28T05:30:58.739Z,91.69
2023-03-28T05:31:58.542Z,91.69
2023-03-28T05:32:58.610Z,91.58
2023-03-28T05:33:58.465Z,91.58
2023-03-28T05:34:58.458Z,91.47
2023-03-28T05:35:58.499Z,91.22
2023-03-28T05:36:58.422Z,91.02
2023-03-28T05:37:58.390Z,90.91
2023-03-28T05:38:58.394Z,90.70
2023-03-28T05:39:58.435Z,90.39
2023-03-28T05:40:58.857Z,90.39
2023-03-28T05:41:58.334Z,90.60
2023-03-28T05:42:58.336Z,89.97
2023-03-28T05:43:58.312Z,89.87
2023-03-28T05:44:58.331Z,89.66
2023-03-28T05:45:58.312Z,89.24
2023-03-28T05:46:58.309Z,89.34
2023-03-28T05:47:58.294Z,89.03
2023-03-28T05:48:58.259Z,88.62
2023-03-28T05:49:58.249Z,88.30
2023-03-28T05:50:58.406Z,87.47
2023-03-28T05:51:58.248Z,87.15
2023-03-28T05:52:58.200Z,86.94
2023-03-28T05:53:58.196Z,87.26
2023-03-28T05:54:58.183Z,87.47
2023-03-28T05:55:58.210Z,87.26
2023-03-28T05:56:58.298Z,87.37
2023-03-28T05:57:58.159Z,87.47
2023-03-28T05:58:58.153Z,87.26
2023-03-28T05:59:58.128Z,87.57
2023-03-28T06:00:58.282Z,87.68
2023-03-28T06:01:58.081Z,87.78
2023-03-28T06:02:58.159Z,87.78
2023-03-28T06:03:58.069Z,87.88
2023-03-28T06:04:58.160Z,88.09
2023-03-28T06:05:58.068Z,88.30
2023-03-28T06:06:58.016Z,88.09
2023-03-28T06:07:58.028Z,88.20
2023-03-28T06:08:58.008Z,87.99
2023-03-28T06:09:57.979Z,88.09
2023-03-28T06:10:58.292Z,87.88
2023-03-28T06:11:57.986Z,87.99
2023-03-28T06:12:57.936Z,87.78
2023-03-28T06:13:57.948Z,87.57
2023-03-28T06:14:57.911Z,87.68
2023-03-28T06:15:57.985Z,87.78
2023-03-28T06:16:57.906Z,87.88
2023-03-28T06:17:57.999Z,88.20
2023-03-28T06:19:10.420Z,88.20
2023-03-28T06:19:58.942Z,87.99
2023-03-28T06:20:58.139Z,87.78
2023-03-28T06:21:57.867Z,87.99
2023-03-28T06:22:57.863Z,87.99
2023-03-28T06:23:57.816Z,88.41
2023-03-28T06:24:57.806Z,88.30
2023-03-28T06:25:57.825Z,88.41
2023-03-28T06:26:57.799Z,88.20
2023-03-28T06:27:57.783Z,88.30
2023-03-28T06:28:57.763Z,88.30
2023-03-28T06:29:57.750Z,88.16
2023-03-28T06:30:57.844Z,88.20
2023-03-28T06:31:57.818Z,88.30
2023-03-28T06:32:57.755Z,88.16
2023-03-28T06:33:57.694Z,88.16
2023-03-28T06:34:57.668Z,87.95
2023-03-28T06:35:57.785Z,87.84
2023-03-28T06:36:57.656Z,87.74
2023-03-28T06:37:57.653Z,87.63
2023-03-28T06:38:57.686Z,87.63
2023-03-28T06:39:57.604Z,87.01
2023-03-28T06:40:57.654Z,87.01
2023-03-28T06:41:57.596Z,87.12
2023-03-28T06:42:57.555Z,87.12
2023-03-28T06:43:57.571Z,86.91
2023-03-28T06:44:57.592Z,86.80
2023-03-28T06:45:57.579Z,86.66
2023-03-28T06:46:57.536Z,86.45
2023-03-28T06:47:57.522Z,86.45
2023-03-28T06:48:57.510Z,86.13
2023-03-28T06:49:57.497Z,86.03
2023-03-28T06:50:57.598Z,86.24
2023-03-28T06:51:57.480Z,86.10
2023-03-28T06:52:57.453Z,85.36
2023-03-28T06:53:57.442Z,85.05
2023-03-28T06:54:57.433Z,84.33
2023-03-28T06:55:57.440Z,84.12
2023-03-28T06:56:57.474Z,84.22
2023-03-28T06:57:57.396Z,84.43
2023-03-28T06:58:57.373Z,84.22
2023-03-28T06:59:57.404Z,84.39
2023-03-28T07:00:57.415Z,84.50
2023-03-28T07:01:57.402Z,84.39
2023-03-28T07:02:57.356Z,83.87
2023-03-28T07:03:57.646Z,83.56
2023-03-28T07:04:57.277Z,83.25
2023-03-28T07:05:57.302Z,83.25
2023-03-28T07:06:57.295Z,83.25
2023-03-28T07:07:57.264Z,82.82
2023-03-28T07:08:57.266Z,83.14
2023-03-28T07:09:57.244Z,82.62
2023-03-28T07:10:57.351Z,81.89
2023-03-28T07:11:57.234Z,81.99
2023-03-28T07:12:57.173Z,82.37
2023-03-28T07:13:57.171Z,81.85
2023-03-28T07:14:57.186Z,81.75
2023-03-28T07:15:57.161Z,81.96
2023-03-28T07:16:57.195Z,81.33
2023-03-28T07:17:57.230Z,81.33
2023-03-28T07:18:57.132Z,81.02
2023-03-28T07:19:57.101Z,80.71
2023-03-28T07:21:04.102Z,79.77
2023-03-28T07:21:58.113Z,80.29
2023-03-28T07:22:57.074Z,80.19
2023-03-28T07:23:57.063Z,80.08
2023-03-28T07:24:57.046Z,79.63
2023-03-28T07:25:57.024Z,79.63
2023-03-28T07:27:11.731Z,79.94
2023-03-28T07:27:58.084Z,79.21
2023-03-28T07:28:57.009Z,78.80
2023-03-28T07:29:56.979Z,78.69
2023-03-28T07:30:57.244Z,78.69
2023-03-28T07:31:56.997Z,78.69
2023-03-28T07:33:09.430Z,78.86
2023-03-28T07:33:57.985Z,78.34
2023-03-28T07:34:56.908Z,78.45
2023-03-28T07:35:56.958Z,77.51
2023-03-28T07:36:56.900Z,77.30
2023-03-28T07:37:57.072Z,77.72
2023-03-28T07:38:56.926Z,77.93
2023-03-28T07:39:56.831Z,78.14
2023-03-28T07:40:56.836Z,77.27
2023-03-28T07:41:56.823Z,76.33
2023-03-28T07:42:56.817Z,75.95
2023-03-28T07:43:56.809Z,75.95
2023-03-28T07:44:56.851Z,76.06
2023-03-28T07:45:56.786Z,76.57
2023-03-28T07:46:56.830Z,76.47
2023-03-28T07:47:56.781Z,76.85
2023-03-28T07:48:56.729Z,76.75
2023-03-28T07:49:56.745Z,76.12
2023-03-28T07:50:56.745Z,76.23
2023-03-28T07:51:56.704Z,76.02
2023-03-28T07:52:56.665Z,76.23
2023-03-28T07:53:56.712Z,76.33
2023-03-28T07:54:56.645Z,76.19
2023-03-28T07:55:56.636Z,75.71
2023-03-28T07:56:56.630Z,75.67
2023-03-28T07:58:03.804Z,75.78
2023-03-28T07:58:56.618Z,75.29
2023-03-28T07:59:56.590Z,75.19
2023-03-28T08:00:56.561Z,75.50
2023-03-28T08:01:56.561Z,74.22
2023-03-28T08:02:56.643Z,74.11
2023-03-28T08:03:56.730Z,73.91
2023-03-28T08:04:56.540Z,73.60
2023-03-28T08:05:56.618Z,72.86
2023-03-28T08:06:56.528Z,72.31
2023-03-28T08:07:56.523Z,72.00
2023-03-28T08:08:56.530Z,71.38
2023-03-28T08:09:58.876Z,70.44
2023-03-28T08:10:56.457Z,69.61
2023-03-28T08:11:56.433Z,69.20
2023-03-28T08:12:56.412Z,69.27
2023-03-28T08:13:56.422Z,68.65
2023-03-28T08:14:56.401Z,68.13
2023-03-28T08:15:56.476Z,67.50
2023-03-28T08:16:56.417Z,67.30
2023-03-28T08:17:56.403Z,68.10
2023-03-28T08:19:03.911Z,67.92
2023-03-28T08:19:57.346Z,68.62
2023-03-28T08:20:56.326Z,67.37
2023-03-28T08:21:56.328Z,65.50
2023-03-28T08:22:56.394Z,65.81
2023-03-28T08:23:56.293Z,65.70
2023-03-28T08:24:56.283Z,66.02
2023-03-28T08:25:56.278Z,65.81
2023-03-28T08:26:56.234Z,64.67
2023-03-28T08:27:56.261Z,63.73
2023-03-28T08:28:56.260Z,61.66
2023-03-28T08:29:56.235Z,61.69
2023-03-28T08:30:56.213Z,63.04
2023-03-28T08:31:56.193Z,62.90
2023-03-28T08:32:56.181Z,61.97
2023-03-28T08:33:56.165Z,60.72
2023-03-28T08:34:56.146Z,60.21
2023-03-28T08:35:56.180Z,59.48
2023-03-28T08:36:56.136Z,59.48
2023-03-28T08:37:56.108Z,58.86
2023-03-28T08:38:56.095Z,58.75
2023-03-28T08:39:56.080Z,59.35
2023-03-28T08:40:56.086Z,58.94
2023-03-28T08:41:56.071Z,58.62
2023-03-28T08:42:56.032Z,58.49
2023-03-28T08:43:56.025Z,58.83
2023-03-28T08:44:56.015Z,59.53
2023-03-28T08:45:56.102Z,59.11
2023-03-28T08:46:56.104Z,58.28
2023-03-28T08:47:55.986Z,58.59
2023-03-28T08:48:56.015Z,57.76
2023-03-28T08:49:55.957Z,57.45
2023-03-28T08:50:55.948Z,58.70
2023-03-28T08:51:55.929Z,59.01
2023-03-28T08:52:55.904Z,59.53
2023-03-28T08:53:55.891Z,59.01
2023-03-28T08:54:55.884Z,58.07
2023-03-28T08:55:55.861Z,58.80
2023-03-28T08:56:55.891Z,57.64
2023-03-28T08:57:55.830Z,57.35
2023-03-28T08:58:55.818Z,58.18
2023-03-28T08:59:55.834Z,58.26
2023-03-28T09:00:55.804Z,58.47
2023-03-28T09:01:55.824Z,58.47
2023-03-28T09:02:55.966Z,59.16
2023-03-28T09:03:55.924Z,58.64
2023-03-28T09:05:05.098Z,58.64
2023-03-28T09:05:56.785Z,58.12
2023-03-28T09:06:55.713Z,57.60
2023-03-28T09:07:55.728Z,57.71
2023-03-28T09:08:55.693Z,58.57
2023-03-28T09:09:55.708Z,58.36
2023-03-28T09:10:55.692Z,58.18
2023-03-28T09:11:55.686Z,58.70
2023-03-28T09:12:55.649Z,58.70
2023-03-28T09:13:55.657Z,59.35
2023-03-28T09:14:55.629Z,59.97
2023-03-28T09:15:55.643Z,60.39
2023-03-28T09:16:55.724Z,59.97
2023-03-28T09:17:55.627Z,60.80
2023-03-28T09:18:55.580Z,60.18
2023-03-28T09:19:55.548Z,60.60
2023-03-28T09:20:55.569Z,60.70
2023-03-28T09:22:04.949Z,60.70
2023-03-28T09:22:56.530Z,60.70
2023-03-28T09:23:55.496Z,61.01
2023-03-28T09:24:55.696Z,59.56
2023-03-28T09:25:55.485Z,59.97
2023-03-28T09:26:55.484Z,60.39
2023-03-28T09:27:55.486Z,61.19
2023-03-28T09:28:55.468Z,61.19
2023-03-28T09:29:55.436Z,61.71
2023-03-28T09:30:55.430Z,61.29
2023-03-28T09:31:55.463Z,61.11
2023-03-28T09:32:55.409Z,62.43
2023-03-28T09:33:55.377Z,63.16
2023-03-28T09:34:55.409Z,62.43
2023-03-28T09:35:55.386Z,62.85
2023-03-28T09:36:55.665Z,62.33
2023-03-28T09:37:55.365Z,61.91
2023-03-28T09:38:55.305Z,61.40
2023-03-28T09:39:55.330Z,62.09
2023-03-28T09:40:55.277Z,61.78
2023-03-28T09:41:55.279Z,60.43
2023-03-28T09:42:55.300Z,61.05
2023-03-28T09:43:57.306Z,60.74
2023-03-28T09:44:55.250Z,61.13
2023-03-28T09:45:55.252Z,61.47
2023-03-28T09:46:55.253Z,61.78
2023-03-28T09:47:55.316Z,62.02
2023-03-28T09:48:55.299Z,62.02
2023-03-28T09:50:02.458Z,61.84
2023-03-28T09:50:56.155Z,62.46
2023-03-28T09:51:55.135Z,61.53
2023-03-28T09:52:55.121Z,61.29
2023-03-28T09:53:55.135Z,60.22
2023-03-28T09:54:55.121Z,58.98
2023-03-28T09:56:03.858Z,58.23
2023-03-28T09:56:56.157Z,59.34
2023-03-28T09:57:55.077Z,59.29
2023-03-28T09:58:55.076Z,57.71
2023-03-28T09:59:55.058Z,55.98
2023-03-28T10:00:55.191Z,56.73
2023-03-28T10:01:55.061Z,56.83
2023-03-28T10:02:55.060Z,56.34
2023-03-28T10:03:54.991Z,56.54
2023-03-28T10:04:55.045Z,56.44
2023-03-28T10:05:54.960Z,56.13
2023-03-28T10:06:54.956Z,56.93
2023-03-28T10:07:54.951Z,55.49
2023-03-28T10:08:54.924Z,55.62
2023-03-28T10:09:54.936Z,56.85
2023-03-28T10:10:55.052Z,57.35
2023-03-28T10:11:54.945Z,57.04
2023-03-28T10:12:54.885Z,56.93
2023-03-28T10:13:54.881Z,56.21
2023-03-28T10:14:54.842Z,55.90
2023-03-28T10:15:54.891Z,54.68
2023-03-28T10:16:54.840Z,54.47
2023-03-28T10:17:54.915Z,54.79
2023-03-28T10:18:54.848Z,54.79
2023-03-28T10:19:54.780Z,54.06
2023-03-28T10:20:54.783Z,54.68
2023-03-28T10:21:54.773Z,55.82
2023-03-28T10:22:54.819Z,57.68
2023-03-28T10:23:54.720Z,58.72
2023-03-28T10:24:54.728Z,59.24
2023-03-28T10:25:54.707Z,59.66
2023-03-28T10:26:54.706Z,59.42
2023-03-28T10:27:54.700Z,59.00
2023-03-28T10:28:54.702Z,59.31
2023-03-28T10:29:54.666Z,58.59
2023-03-28T10:30:54.763Z,58.59
2023-03-28T10:31:54.635Z,57.24
2023-03-28T10:32:54.698Z,55.69
2023-03-28T10:33:54.607Z,54.97
2023-03-28T10:34:54.613Z,55.49
2023-03-28T10:35:54.629Z,55.79
2023-03-28T10:36:54.619Z,55.69
2023-03-28T10:37:54.553Z,55.18
2023-03-28T10:38:54.541Z,54.76
2023-03-28T10:39:54.529Z,55.49
2023-03-28T10:40:54.571Z,56.41
2023-03-28T10:41:54.488Z,54.97
2023-03-28T10:42:54.489Z,55.38
2023-03-28T10:43:54.463Z,55.25
2023-03-28T10:44:54.588Z,56.49
2023-03-28T10:45:54.447Z,56.49
2023-03-28T10:46:54.529Z,56.62
2023-03-28T10:47:54.468Z,57.56
2023-03-28T10:48:54.418Z,57.24
2023-03-28T10:49:54.399Z,57.58
2023-03-28T10:50:54.404Z,58.83
2023-03-28T10:51:54.375Z,57.97
2023-03-28T10:52:54.361Z,58.18
2023-03-28T10:53:54.385Z,57.45
2023-03-28T10:54:54.338Z,57.45
2023-03-28T10:55:54.326Z,56.31
2023-03-28T10:56:54.336Z,55.87
2023-03-28T10:57:54.294Z,55.98
2023-03-28T10:58:54.291Z,54.22
2023-03-28T10:59:54.274Z,54.11
2023-03-28T11:00:54.311Z,54.53
2023-03-28T11:01:54.261Z,54.63
2023-03-28T11:02:54.304Z,54.74
2023-03-28T11:03:54.396Z,55.66
2023-03-28T11:04:54.221Z,56.08
2023-03-28T11:06:08.093Z,56.18
2023-03-28T11:06:55.221Z,55.56
2023-03-28T11:07:54.195Z,55.59
2023-03-28T11:08:54.176Z,55.98
2023-03-28T11:09:54.187Z,56.31
2023-03-28T11:10:54.110Z,55.79
2023-03-28T11:11:54.118Z,55.90
2023-03-28T11:12:56.151Z,55.79
2023-03-28T11:13:54.098Z,56.21
2023-03-28T11:14:54.076Z,56.52
2023-03-28T11:15:54.094Z,56.10
2023-03-28T11:16:54.048Z,56.65
2023-03-28T11:17:54.079Z,57.27
2023-03-28T11:18:54.012Z,57.58
2023-03-28T11:19:54.025Z,58.38
2023-03-28T11:20:54.000Z,59.00
2023-03-28T11:21:53.969Z,58.15
2023-03-28T11:23:04.629Z,58.02
2023-03-28T11:23:54.976Z,58.69
2023-03-28T11:24:53.949Z,56.00
2023-03-28T11:25:53.940Z,54.32
2023-03-28T11:26:57.597Z,54.74
2023-03-28T11:27:54.921Z,53.19
2023-03-28T11:28:53.907Z,52.05
2023-03-28T11:29:53.883Z,52.55
2023-03-28T11:30:53.868Z,51.62
2023-03-28T11:31:53.977Z,53.37
2023-03-28T11:32:53.901Z,51.51
2023-03-28T11:33:53.832Z,51.54
2023-03-28T11:34:53.802Z,52.47
2023-03-28T11:35:53.798Z,51.66
2023-03-28T11:36:53.782Z,52.59
2023-03-28T11:37:53.763Z,54.14
2023-03-28T11:38:53.769Z,53.70
2023-03-28T11:39:53.776Z,52.05
2023-03-28T11:40:53.746Z,52.28
2023-03-28T11:41:53.739Z,52.47
2023-03-28T11:42:53.717Z,52.23
2023-03-28T11:43:53.692Z,50.68
2023-03-28T11:44:53.688Z,51.26
2023-03-28T11:45:53.743Z,51.65
2023-03-28T11:46:53.674Z,50.10
2023-03-28T11:47:53.739Z,49.71
2023-03-28T11:48:53.646Z,51.46
2023-03-28T11:49:53.620Z,51.07
2023-03-28T11:50:53.614Z,51.28
2023-03-28T11:51:53.632Z,51.51
2023-03-28T11:52:53.600Z,51.62
2023-03-28T11:53:53.571Z,51.02
2023-03-28T11:54:53.544Z,51.12
2023-03-28T11:55:53.527Z,51.82
2023-03-28T11:56:53.622Z,51.10
2023-03-28T11:57:53.511Z,51.18
2023-03-28T11:58:53.499Z,50.95
2023-03-28T11:59:53.487Z,49.30
2023-03-28T12:00:53.508Z,50.10
2023-03-28T12:01:53.484Z,48.68
2023-03-28T12:02:53.608Z,49.09
2023-03-28T12:03:53.503Z,48.78
2023-03-28T12:04:53.428Z,48.78
2023-03-28T12:05:57.784Z,49.19
2023-03-28T12:07:02.169Z,48.47
2023-03-28T12:07:54.379Z,49.19
2023-03-28T12:08:53.365Z,49.48
2023-03-28T12:09:53.355Z,49.07
2023-03-28T12:10:53.346Z,48.88
2023-03-28T12:11:53.325Z,50.33
2023-03-28T12:12:53.318Z,49.71
2023-03-28T12:14:05.067Z,49.91
2023-03-28T12:14:54.283Z,50.23
2023-03-28T12:15:53.296Z,51.13
2023-03-28T12:16:53.345Z,47.55
2023-03-28T12:17:53.303Z,48.58
2023-03-28T12:18:53.238Z,49.09
2023-03-28T12:19:53.212Z,49.69
2023-03-28T12:20:53.210Z,48.66
2023-03-28T12:21:53.206Z,47.83
2023-03-28T12:22:53.187Z,46.59
2023-03-28T12:23:53.157Z,47.31
2023-03-28T12:24:53.262Z,47.63
2023-03-28T12:25:53.173Z,46.80
2023-03-28T12:26:55.924Z,46.70
2023-03-28T12:27:53.118Z,46.59
2023-03-28T12:28:53.129Z,47.01
2023-03-28T12:29:53.114Z,46.80
2023-03-28T12:30:53.101Z,46.78
2023-03-28T12:31:53.114Z,46.55
2023-03-28T12:32:53.123Z,45.83
2023-03-28T12:33:53.046Z,46.22
2023-03-28T12:34:53.021Z,45.61
2023-03-28T12:35:53.043Z,45.40
2023-03-28T12:36:53.446Z,44.72
2023-03-28T12:37:53.000Z,45.75
2023-03-28T12:38:55.515Z,45.34
2023-03-28T12:39:54.844Z,45.44
2023-03-28T12:40:52.973Z,45.54
2023-03-28T12:41:52.920Z,45.87
2023-03-28T12:42:52.947Z,46.16
2023-03-28T12:43:52.958Z,45.75
2023-03-28T12:44:52.915Z,45.62
2023-03-28T12:45:52.917Z,45.73
2023-03-28T12:46:52.878Z,45.94
2023-03-28T12:47:52.898Z,45.95
2023-03-28T12:48:52.881Z,45.65
2023-03-28T12:49:52.837Z,46.16
2023-03-28T12:50:52.808Z,45.65
2023-03-28T12:51:52.793Z,46.78
2023-03-28T12:52:52.809Z,46.24